sensor_id;sensor_type;location;lat;lon;timestamp;temperature;humidity
9762;DHT22;4920;49.594;11.022;2023-03-03T00:01:12;2.60;99.90
9762;DHT22;4920;49.594;11.022;2023-03-03T00:03:41;2.50;99.90
9762;DHT22;4920;49.594;11.022;2023-03-03T00:06:12;2.40;99.90
9762;DHT22;4920;49.594;11.022;2023-03-03T00:08:45;2.40;99.90
9762;DHT22;4920;49.594;11.022;2023-03-03T00:11:14;2.30;99.90
9762;DHT22;4920;49.594;11.022;2023-03-03T00:13:45;2.20;99.90
9762;DHT22;4920;49.594;11.022;2023-03-03T00:16:21;2.10;99.90
9762;DHT22;4920;49.594;11.022;2023-03-03T00:18:51;2.00;99.90
9762;DHT22;4920;49.594;11.022;2023-03-03T00:21:26;1.90;99.90
9762;DHT22;4920;49.594;11.022;2023-03-03T00:24:14;1.90;99.90
9762;DHT22;4920;49.594;11.022;2023-03-03T00:26:45;1.80;99.90
9762;DHT22;4920;49.594;11.022;2023-03-03T00:29:33;1.70;99.90
9762;DHT22;4920;49.594;11.022;2023-03-03T00:32:25;1.70;99.90
9762;DHT22;4920;49.594;11.022;2023-03-03T00:34:55;1.60;99.90
9762;DHT22;4920;49.594;11.022;2023-03-03T00:37:31;1.60;99.90
9762;DHT22;4920;49.594;11.022;2023-03-03T00:40:21;1.50;99.90
9762;DHT22;4920;49.594;11.022;2023-03-03T00:42:52;1.50;99.90
9762;DHT22;4920;49.594;11.022;2023-03-03T00:45:30;1.40;99.90
9762;DHT22;4920;49.594;11.022;2023-03-03T00:48:15;1.40;99.90
9762;DHT22;4920;49.594;11.022;2023-03-03T00:50:46;1.40;99.90
9762;DHT22;4920;49.594;11.022;2023-03-03T00:53:16;1.40;99.90
9762;DHT22;4920;49.594;11.022;2023-03-03T00:55:47;1.40;99.90
9762;DHT22;4920;49.594;11.022;2023-03-03T00:58:17;1.40;99.90
9762;DHT22;4920;49.594;11.022;2023-03-03T01:00:48;1.30;99.90
9762;DHT22;4920;49.594;11.022;2023-03-03T01:03:23;1.20;99.90
9762;DHT22;4920;49.594;11.022;2023-03-03T01:05:53;1.20;99.90
9762;DHT22;4920;49.594;11.022;2023-03-03T01:08:22;1.20;99.90
9762;DHT22;4920;49.594;11.022;2023-03-03T01:10:53;1.20;99.90
9762;DHT22;4920;49.594;11.022;2023-03-03T01:13:25;1.30;99.90
9762;DHT22;4920;49.594;11.022;2023-03-03T01:15:54;1.40;99.90
9762;DHT22;4920;49.594;11.022;2023-03-03T01:18:24;1.60;99.90
9762;DHT22;4920;49.594;11.022;2023-03-03T01:20:53;1.70;99.90
9762;DHT22;4920;49.594;11.022;2023-03-03T01:23:22;1.90;99.90
9762;DHT22;4920;49.594;11.022;2023-03-03T01:25:51;1.90;99.90
9762;DHT22;4920;49.594;11.022;2023-03-03T01:28:20;2.00;99.90
9762;DHT22;4920;49.594;11.022;2023-03-03T01:30:51;2.10;99.90
9762;DHT22;4920;49.594;11.022;2023-03-03T01:33:20;2.10;99.90
9762;DHT22;4920;49.594;11.022;2023-03-03T01:35:50;2.10;99.90
9762;DHT22;4920;49.594;11.022;2023-03-03T01:38:19;2.10;99.90
9762;DHT22;4920;49.594;11.022;2023-03-03T01:40:52;2.10;99.90
9762;DHT22;4920;49.594;11.022;2023-03-03T01:43:22;2.10;99.90
9762;DHT22;4920;49.594;11.022;2023-03-03T01:46:24;2.10;99.90
9762;DHT22;4920;49.594;11.022;2023-03-03T01:48:57;2.00;99.90
9762;DHT22;4920;49.594;11.022;2023-03-03T01:51:33;1.80;99.90
9762;DHT22;4920;49.594;11.022;2023-03-03T01:54:05;1.70;99.90
9762;DHT22;4920;49.594;11.022;2023-03-03T01:56:34;1.50;99.90
9762;DHT22;4920;49.594;11.022;2023-03-03T01:59:05;1.40;99.90
9762;DHT22;4920;49.594;11.022;2023-03-03T02:01:34;1.30;99.90
9762;DHT22;4920;49.594;11.022;2023-03-03T02:04:04;1.20;99.90
9762;DHT22;4920;49.594;11.022;2023-03-03T02:06:36;1.10;99.90
9762;DHT22;4920;49.594;11.022;2023-03-03T02:09:10;1.10;99.90
9762;DHT22;4920;49.594;11.022;2023-03-03T02:11:44;1.00;99.90
9762;DHT22;4920;49.594;11.022;2023-03-03T02:14:14;1.00;99.90
9762;DHT22;4920;49.594;11.022;2023-03-03T02:16:43;0.90;99.90
9762;DHT22;4920;49.594;11.022;2023-03-03T02:19:17;0.90;99.90
9762;DHT22;4920;49.594;11.022;2023-03-03T02:21:49;0.80;99.90
9762;DHT22;4920;49.594;11.022;2023-03-03T02:24:25;0.80;99.90
9762;DHT22;4920;49.594;11.022;2023-03-03T02:26:56;0.80;99.90
9762;DHT22;4920;49.594;11.022;2023-03-03T02:29:26;0.70;99.90
9762;DHT22;4920;49.594;11.022;2023-03-03T02:31:55;0.70;99.90
9762;DHT22;4920;49.594;11.022;2023-03-03T02:34:25;0.70;99.90
9762;DHT22;4920;49.594;11.022;2023-03-03T02:36:54;0.70;99.90
9762;DHT22;4920;49.594;11.022;2023-03-03T02:39:24;0.70;99.90
9762;DHT22;4920;49.594;11.022;2023-03-03T02:41:57;0.70;99.90
9762;DHT22;4920;49.594;11.022;2023-03-03T02:44:35;0.70;99.90
9762;DHT22;4920;49.594;11.022;2023-03-03T02:47:04;0.70;99.90
9762;DHT22;4920;49.594;11.022;2023-03-03T02:49:34;0.70;99.90
9762;DHT22;4920;49.594;11.022;2023-03-03T02:52:05;0.60;99.90
9762;DHT22;4920;49.594;11.022;2023-03-03T02:54:38;0.70;99.90
9762;DHT22;4920;49.594;11.022;2023-03-03T02:57:08;0.70;99.90
9762;DHT22;4920;49.594;11.022;2023-03-03T02:59:37;0.80;99.90
9762;DHT22;4920;49.594;11.022;2023-03-03T03:02:10;0.90;99.90
9762;DHT22;4920;49.594;11.022;2023-03-03T03:04:39;1.00;99.90
9762;DHT22;4920;49.594;11.022;2023-03-03T03:07:09;1.00;99.90
9762;DHT22;4920;49.594;11.022;2023-03-03T03:09:38;0.90;99.90
9762;DHT22;4920;49.594;11.022;2023-03-03T03:12:08;1.00;99.90
9762;DHT22;4920;49.594;11.022;2023-03-03T03:14:38;0.90;99.90
9762;DHT22;4920;49.594;11.022;2023-03-03T03:17:08;0.80;99.90
9762;DHT22;4920;49.594;11.022;2023-03-03T03:19:39;0.80;99.90
9762;DHT22;4920;49.594;11.022;2023-03-03T03:22:08;0.70;99.90
9762;DHT22;4920;49.594;11.022;2023-03-03T03:24:37;0.70;99.90
9762;DHT22;4920;49.594;11.022;2023-03-03T03:27:09;0.70;99.90
9762;DHT22;4920;49.594;11.022;2023-03-03T03:29:38;0.60;99.90
9762;DHT22;4920;49.594;11.022;2023-03-03T03:32:07;0.70;99.90
9762;DHT22;4920;49.594;11.022;2023-03-03T03:34:37;0.60;99.90
9762;DHT22;4920;49.594;11.022;2023-03-03T03:37:06;0.70;99.90
9762;DHT22;4920;49.594;11.022;2023-03-03T03:39:37;0.70;99.90
9762;DHT22;4920;49.594;11.022;2023-03-03T03:42:06;0.80;99.90
9762;DHT22;4920;49.594;11.022;2023-03-03T03:44:36;0.80;99.90
9762;DHT22;4920;49.594;11.022;2023-03-03T03:47:05;0.80;99.90
9762;DHT22;4920;49.594;11.022;2023-03-03T03:49:33;0.80;99.90
9762;DHT22;4920;49.594;11.022;2023-03-03T03:52:03;0.70;99.90
9762;DHT22;4920;49.594;11.022;2023-03-03T03:54:33;0.60;99.90
9762;DHT22;4920;49.594;11.022;2023-03-03T03:57:02;0.50;99.90
9762;DHT22;4920;49.594;11.022;2023-03-03T03:59:31;0.40;99.90
9762;DHT22;4920;49.594;11.022;2023-03-03T04:02:01;0.40;99.90
9762;DHT22;4920;49.594;11.022;2023-03-03T04:04:31;0.30;99.90
9762;DHT22;4920;49.594;11.022;2023-03-03T04:07:00;0.30;99.90
9762;DHT22;4920;49.594;11.022;2023-03-03T04:09:29;0.20;99.90
9762;DHT22;4920;49.594;11.022;2023-03-03T04:11:57;0.30;99.90
9762;DHT22;4920;49.594;11.022;2023-03-03T04:14:27;0.30;99.90
9762;DHT22;4920;49.594;11.022;2023-03-03T04:16:56;0.30;99.90
9762;DHT22;4920;49.594;11.022;2023-03-03T04:19:27;0.30;99.90
9762;DHT22;4920;49.594;11.022;2023-03-03T04:21:55;0.30;99.90
9762;DHT22;4920;49.594;11.022;2023-03-03T04:24:25;0.30;99.90
9762;DHT22;4920;49.594;11.022;2023-03-03T04:26:54;0.30;99.90
9762;DHT22;4920;49.594;11.022;2023-03-03T04:29:23;0.30;99.90
9762;DHT22;4920;49.594;11.022;2023-03-03T04:31:51;0.20;99.90
9762;DHT22;4920;49.594;11.022;2023-03-03T04:34:20;0.20;99.90
9762;DHT22;4920;49.594;11.022;2023-03-03T04:36:50;0.20;99.90
9762;DHT22;4920;49.594;11.022;2023-03-03T04:39:19;0.30;99.90
9762;DHT22;4920;49.594;11.022;2023-03-03T04:41:48;0.40;99.90
9762;DHT22;4920;49.594;11.022;2023-03-03T04:44:17;0.40;99.90
9762;DHT22;4920;49.594;11.022;2023-03-03T04:46:47;0.40;99.90
9762;DHT22;4920;49.594;11.022;2023-03-03T04:49:16;0.40;99.90
9762;DHT22;4920;49.594;11.022;2023-03-03T04:51:45;0.40;99.90
9762;DHT22;4920;49.594;11.022;2023-03-03T04:54:15;0.30;99.90
9762;DHT22;4920;49.594;11.022;2023-03-03T04:56:44;0.20;99.90
9762;DHT22;4920;49.594;11.022;2023-03-03T04:59:13;0.20;99.90
9762;DHT22;4920;49.594;11.022;2023-03-03T05:01:42;0.10;99.90
9762;DHT22;4920;49.594;11.022;2023-03-03T05:04:13;0.10;99.90
9762;DHT22;4920;49.594;11.022;2023-03-03T05:06:42;0.00;99.90
9762;DHT22;4920;49.594;11.022;2023-03-03T05:09:10;0.10;99.90
9762;DHT22;4920;49.594;11.022;2023-03-03T05:11:40;0.10;99.90
9762;DHT22;4920;49.594;11.022;2023-03-03T05:14:09;0.10;99.90
9762;DHT22;4920;49.594;11.022;2023-03-03T05:16:38;0.10;99.90
9762;DHT22;4920;49.594;11.022;2023-03-03T05:19:07;0.00;99.90
9762;DHT22;4920;49.594;11.022;2023-03-03T05:21:36;0.00;99.90
9762;DHT22;4920;49.594;11.022;2023-03-03T05:24:09;0.00;99.90
9762;DHT22;4920;49.594;11.022;2023-03-03T05:26:41;-0.10;99.90
9762;DHT22;4920;49.594;11.022;2023-03-03T05:29:09;-0.10;99.90
9762;DHT22;4920;49.594;11.022;2023-03-03T05:31:38;-0.10;99.90
9762;DHT22;4920;49.594;11.022;2023-03-03T05:34:07;-0.10;99.90
9762;DHT22;4920;49.594;11.022;2023-03-03T05:36:36;-0.20;99.90
9762;DHT22;4920;49.594;11.022;2023-03-03T05:39:05;-0.20;99.90
9762;DHT22;4920;49.594;11.022;2023-03-03T05:41:33;-0.30;99.90
9762;DHT22;4920;49.594;11.022;2023-03-03T05:44:04;-0.30;99.90
9762;DHT22;4920;49.594;11.022;2023-03-03T05:46:33;-0.30;99.90
9762;DHT22;4920;49.594;11.022;2023-03-03T05:49:02;-0.30;99.90
9762;DHT22;4920;49.594;11.022;2023-03-03T05:51:31;-0.30;99.90
9762;DHT22;4920;49.594;11.022;2023-03-03T05:54:04;-0.30;99.90
9762;DHT22;4920;49.594;11.022;2023-03-03T05:56:33;-0.30;99.90
9762;DHT22;4920;49.594;11.022;2023-03-03T05:59:02;-0.40;99.90
9762;DHT22;4920;49.594;11.022;2023-03-03T06:01:32;-0.30;99.90
9762;DHT22;4920;49.594;11.022;2023-03-03T06:04:00;-0.30;99.90
9762;DHT22;4920;49.594;11.022;2023-03-03T06:06:29;-0.30;99.90
9762;DHT22;4920;49.594;11.022;2023-03-03T06:08:58;-0.20;99.90
9762;DHT22;4920;49.594;11.022;2023-03-03T06:11:27;-0.20;99.90
9762;DHT22;4920;49.594;11.022;2023-03-03T06:13:56;-0.30;99.90
9762;DHT22;4920;49.594;11.022;2023-03-03T06:16:51;-0.20;99.90
9762;DHT22;4920;49.594;11.022;2023-03-03T06:19:20;-0.20;99.90
9762;DHT22;4920;49.594;11.022;2023-03-03T06:21:48;-0.20;99.90
9762;DHT22;4920;49.594;11.022;2023-03-03T06:24:17;-0.20;99.90
9762;DHT22;4920;49.594;11.022;2023-03-03T06:26:46;-0.10;99.90
9762;DHT22;4920;49.594;11.022;2023-03-03T06:29:15;-0.10;99.90
9762;DHT22;4920;49.594;11.022;2023-03-03T06:31:43;0.00;99.90
9762;DHT22;4920;49.594;11.022;2023-03-03T06:34:13;0.10;99.90
9762;DHT22;4920;49.594;11.022;2023-03-03T06:36:42;0.10;99.90
9762;DHT22;4920;49.594;11.022;2023-03-03T06:39:11;0.10;99.90
9762;DHT22;4920;49.594;11.022;2023-03-03T06:41:40;0.20;99.90
9762;DHT22;4920;49.594;11.022;2023-03-03T06:44:08;0.20;99.90
9762;DHT22;4920;49.594;11.022;2023-03-03T06:46:38;0.30;99.90
9762;DHT22;4920;49.594;11.022;2023-03-03T06:49:35;0.20;99.90
9762;DHT22;4920;49.594;11.022;2023-03-03T06:52:11;0.40;99.90
9762;DHT22;4920;49.594;11.022;2023-03-03T06:54:40;0.40;99.90
9762;DHT22;4920;49.594;11.022;2023-03-03T06:57:15;0.40;99.90
9762;DHT22;4920;49.594;11.022;2023-03-03T06:59:46;0.50;99.90
9762;DHT22;4920;49.594;11.022;2023-03-03T07:02:17;0.50;99.90
9762;DHT22;4920;49.594;11.022;2023-03-03T07:04:52;0.60;99.90
9762;DHT22;4920;49.594;11.022;2023-03-03T07:07:24;0.70;99.90
9762;DHT22;4920;49.594;11.022;2023-03-03T07:09:55;0.80;99.90
9762;DHT22;4920;49.594;11.022;2023-03-03T07:12:27;0.90;99.90
9762;DHT22;4920;49.594;11.022;2023-03-03T07:15:09;1.00;99.90
9762;DHT22;4920;49.594;11.022;2023-03-03T07:17:42;1.10;99.90
9762;DHT22;4920;49.594;11.022;2023-03-03T07:20:18;1.20;99.90
9762;DHT22;4920;49.594;11.022;2023-03-03T07:22:47;1.30;99.90
9762;DHT22;4920;49.594;11.022;2023-03-03T07:25:23;1.50;99.90
9762;DHT22;4920;49.594;11.022;2023-03-03T07:27:57;1.60;99.90
9762;DHT22;4920;49.594;11.022;2023-03-03T07:30:28;1.70;99.90
9762;DHT22;4920;49.594;11.022;2023-03-03T07:32:57;1.80;99.90
9762;DHT22;4920;49.594;11.022;2023-03-03T07:35:36;1.90;99.90
9762;DHT22;4920;49.594;11.022;2023-03-03T07:38:29;2.00;99.90
9762;DHT22;4920;49.594;11.022;2023-03-03T07:41:00;2.20;99.90
9762;DHT22;4920;49.594;11.022;2023-03-03T07:43:33;2.30;99.90
9762;DHT22;4920;49.594;11.022;2023-03-03T07:46:19;2.40;99.90
9762;DHT22;4920;49.594;11.022;2023-03-03T07:48:50;2.50;99.90
9762;DHT22;4920;49.594;11.022;2023-03-03T07:51:23;2.60;99.90
9762;DHT22;4920;49.594;11.022;2023-03-03T07:54:00;2.70;99.90
9762;DHT22;4920;49.594;11.022;2023-03-03T07:56:39;2.80;99.90
9762;DHT22;4920;49.594;11.022;2023-03-03T07:59:17;2.90;99.90
9762;DHT22;4920;49.594;11.022;2023-03-03T08:01:51;2.90;99.90
9762;DHT22;4920;49.594;11.022;2023-03-03T08:04:23;3.10;99.90
9762;DHT22;4920;49.594;11.022;2023-03-03T08:06:57;3.10;99.90
9762;DHT22;4920;49.594;11.022;2023-03-03T08:09:42;3.20;99.90
9762;DHT22;4920;49.594;11.022;2023-03-03T08:15:16;3.30;99.90
9762;DHT22;4920;49.594;11.022;2023-03-03T08:17:47;3.30;99.90
9762;DHT22;4920;49.594;11.022;2023-03-03T08:20:46;3.30;99.90
9762;DHT22;4920;49.594;11.022;2023-03-03T08:23:18;3.40;99.90
9762;DHT22;4920;49.594;11.022;2023-03-03T08:25:49;3.40;99.90
9762;DHT22;4920;49.594;11.022;2023-03-03T08:28:19;3.50;99.90
9762;DHT22;4920;49.594;11.022;2023-03-03T08:30:49;3.60;99.90
9762;DHT22;4920;49.594;11.022;2023-03-03T08:33:35;3.70;99.90
9762;DHT22;4920;49.594;11.022;2023-03-03T08:36:04;3.80;99.90
9762;DHT22;4920;49.594;11.022;2023-03-03T08:38:36;3.90;99.90
9762;DHT22;4920;49.594;11.022;2023-03-03T08:41:05;4.00;99.90
9762;DHT22;4920;49.594;11.022;2023-03-03T08:43:34;4.00;99.90
9762;DHT22;4920;49.594;11.022;2023-03-03T08:46:04;4.10;99.90
9762;DHT22;4920;49.594;11.022;2023-03-03T08:48:33;4.10;99.90
9762;DHT22;4920;49.594;11.022;2023-03-03T08:51:05;4.20;99.90
9762;DHT22;4920;49.594;11.022;2023-03-03T08:53:35;4.30;99.90
9762;DHT22;4920;49.594;11.022;2023-03-03T08:56:05;4.30;99.90
9762;DHT22;4920;49.594;11.022;2023-03-03T08:58:34;4.50;99.90
9762;DHT22;4920;49.594;11.022;2023-03-03T09:01:03;4.60;99.90
9762;DHT22;4920;49.594;11.022;2023-03-03T09:03:32;4.70;99.90
9762;DHT22;4920;49.594;11.022;2023-03-03T09:06:01;4.80;99.90
9762;DHT22;4920;49.594;11.022;2023-03-03T09:08:30;4.90;99.90
9762;DHT22;4920;49.594;11.022;2023-03-03T09:11:01;5.00;99.90
9762;DHT22;4920;49.594;11.022;2023-03-03T09:13:29;5.10;99.90
9762;DHT22;4920;49.594;11.022;2023-03-03T09:15:59;5.20;99.90
9762;DHT22;4920;49.594;11.022;2023-03-03T09:18:31;5.30;99.90
9762;DHT22;4920;49.594;11.022;2023-03-03T09:21:16;5.40;99.90
9762;DHT22;4920;49.594;11.022;2023-03-03T09:23:51;5.50;99.90
9762;DHT22;4920;49.594;11.022;2023-03-03T09:26:30;5.60;99.90
9762;DHT22;4920;49.594;11.022;2023-03-03T09:29:15;5.60;99.90
9762;DHT22;4920;49.594;11.022;2023-03-03T09:31:48;5.70;99.90
9762;DHT22;4920;49.594;11.022;2023-03-03T09:34:21;5.80;99.90
9762;DHT22;4920;49.594;11.022;2023-03-03T09:36:53;5.90;99.90
9762;DHT22;4920;49.594;11.022;2023-03-03T09:39:24;6.00;99.90
9762;DHT22;4920;49.594;11.022;2023-03-03T09:42:31;6.20;99.90
9762;DHT22;4920;49.594;11.022;2023-03-03T09:48:33;6.40;99.90
9762;DHT22;4920;49.594;11.022;2023-03-03T09:54:11;6.80;99.90
9762;DHT22;4920;49.594;11.022;2023-03-03T09:56:47;7.00;99.90
9762;DHT22;4920;49.594;11.022;2023-03-03T09:59:31;7.10;99.90
9762;DHT22;4920;49.594;11.022;2023-03-03T10:02:20;7.20;99.90
9762;DHT22;4920;49.594;11.022;2023-03-03T10:05:10;7.20;99.90
9762;DHT22;4920;49.594;11.022;2023-03-03T10:07:47;7.20;99.90
9762;DHT22;4920;49.594;11.022;2023-03-03T10:10:28;7.20;99.90
9762;DHT22;4920;49.594;11.022;2023-03-03T10:13:10;7.20;99.90
9762;DHT22;4920;49.594;11.022;2023-03-03T10:15:51;7.40;99.90
9762;DHT22;4920;49.594;11.022;2023-03-03T10:18:28;7.40;99.90
9762;DHT22;4920;49.594;11.022;2023-03-03T10:21:08;7.60;99.90
9762;DHT22;4920;49.594;11.022;2023-03-03T10:23:50;7.70;99.90
9762;DHT22;4920;49.594;11.022;2023-03-03T10:26:37;7.90;99.90
9762;DHT22;4920;49.594;11.022;2023-03-03T10:29:29;8.00;99.90
9762;DHT22;4920;49.594;11.022;2023-03-03T10:32:20;8.10;99.90
9762;DHT22;4920;49.594;11.022;2023-03-03T10:35:10;8.20;99.90
9762;DHT22;4920;49.594;11.022;2023-03-03T10:37:50;8.30;99.90
9762;DHT22;4920;49.594;11.022;2023-03-03T10:40:26;8.40;99.90
9762;DHT22;4920;49.594;11.022;2023-03-03T10:43:13;8.50;99.90
9762;DHT22;4920;49.594;11.022;2023-03-03T10:46:23;8.60;99.90
9762;DHT22;4920;49.594;11.022;2023-03-03T10:49:05;8.70;99.90
9762;DHT22;4920;49.594;11.022;2023-03-03T10:51:50;8.70;99.90
9762;DHT22;4920;49.594;11.022;2023-03-03T10:54:35;8.50;99.90
9762;DHT22;4920;49.594;11.022;2023-03-03T10:57:14;8.40;99.90
9762;DHT22;4920;49.594;11.022;2023-03-03T11:00:02;8.50;99.90
9762;DHT22;4920;49.594;11.022;2023-03-03T11:02:40;8.60;99.90
9762;DHT22;4920;49.594;11.022;2023-03-03T11:05:26;8.70;99.90
9762;DHT22;4920;49.594;11.022;2023-03-03T11:07:59;8.70;99.90
9762;DHT22;4920;49.594;11.022;2023-03-03T11:10:49;8.90;99.90
9762;DHT22;4920;49.594;11.022;2023-03-03T11:13:25;9.10;99.90
9762;DHT22;4920;49.594;11.022;2023-03-03T11:16:29;9.30;99.90
9762;DHT22;4920;49.594;11.022;2023-03-03T11:19:08;9.50;99.90
9762;DHT22;4920;49.594;11.022;2023-03-03T11:21:44;9.40;99.90
9762;DHT22;4920;49.594;11.022;2023-03-03T11:24:22;9.20;99.90
9762;DHT22;4920;49.594;11.022;2023-03-03T11:27:08;9.00;99.90
9762;DHT22;4920;49.594;11.022;2023-03-03T11:29:56;9.00;99.90
9762;DHT22;4920;49.594;11.022;2023-03-03T11:32:35;9.10;99.90
9762;DHT22;4920;49.594;11.022;2023-03-03T11:35:18;9.40;99.90
9762;DHT22;4920;49.594;11.022;2023-03-03T11:37:58;9.70;99.90
9762;DHT22;4920;49.594;11.022;2023-03-03T11:40:38;9.90;99.90
9762;DHT22;4920;49.594;11.022;2023-03-03T11:43:12;10.00;99.90
9762;DHT22;4920;49.594;11.022;2023-03-03T11:46:04;10.00;99.90
9762;DHT22;4920;49.594;11.022;2023-03-03T11:48:38;10.00;99.40
9762;DHT22;4920;49.594;11.022;2023-03-03T11:51:13;10.10;98.20
9762;DHT22;4920;49.594;11.022;2023-03-03T11:53:56;10.10;98.20
9762;DHT22;4920;49.594;11.022;2023-03-03T11:56:28;10.20;98.30
9762;DHT22;4920;49.594;11.022;2023-03-03T11:59:13;10.40;96.80
9762;DHT22;4920;49.594;11.022;2023-03-03T12:01:54;10.40;96.70
9762;DHT22;4920;49.594;11.022;2023-03-03T12:04:28;10.30;95.20
9762;DHT22;4920;49.594;11.022;2023-03-03T12:07:15;10.30;94.60
9762;DHT22;4920;49.594;11.022;2023-03-03T12:09:56;10.20;94.90
9762;DHT22;4920;49.594;11.022;2023-03-03T12:12:33;10.50;94.90
9762;DHT22;4920;49.594;11.022;2023-03-03T12:15:12;10.70;95.20
9762;DHT22;4920;49.594;11.022;2023-03-03T12:18:07;10.90;94.70
9762;DHT22;4920;49.594;11.022;2023-03-03T12:20:45;11.10;95.10
9762;DHT22;4920;49.594;11.022;2023-03-03T12:23:37;11.30;93.80
9762;DHT22;4920;49.594;11.022;2023-03-03T12:26:14;11.50;93.10
9762;DHT22;4920;49.594;11.022;2023-03-03T12:28:52;11.50;91.80
9762;DHT22;4920;49.594;11.022;2023-03-03T12:31:31;11.50;91.60
9762;DHT22;4920;49.594;11.022;2023-03-03T12:34:08;11.70;91.80
9762;DHT22;4920;49.594;11.022;2023-03-03T12:37:02;11.80;90.60
9762;DHT22;4920;49.594;11.022;2023-03-03T12:39:43;11.60;89.80
9762;DHT22;4920;49.594;11.022;2023-03-03T12:42:20;11.40;90.00
9762;DHT22;4920;49.594;11.022;2023-03-03T12:44:57;11.30;90.70
9762;DHT22;4920;49.594;11.022;2023-03-03T12:47:31;11.30;90.70
9762;DHT22;4920;49.594;11.022;2023-03-03T12:50:20;11.40;90.60
9762;DHT22;4920;49.594;11.022;2023-03-03T12:52:58;11.60;88.80
9762;DHT22;4920;49.594;11.022;2023-03-03T12:55:40;11.60;84.50
9762;DHT22;4920;49.594;11.022;2023-03-03T12:58:18;11.50;83.60
9762;DHT22;4920;49.594;11.022;2023-03-03T13:00:58;11.70;86.80
9762;DHT22;4920;49.594;11.022;2023-03-03T13:03:37;11.60;85.70
9762;DHT22;4920;49.594;11.022;2023-03-03T13:06:26;11.70;86.20
9762;DHT22;4920;49.594;11.022;2023-03-03T13:09:06;11.70;86.60
9762;DHT22;4920;49.594;11.022;2023-03-03T13:11:48;11.80;86.90
9762;DHT22;4920;49.594;11.022;2023-03-03T13:14:28;11.80;85.40
9762;DHT22;4920;49.594;11.022;2023-03-03T13:17:06;11.70;86.50
9762;DHT22;4920;49.594;11.022;2023-03-03T13:19:44;11.70;85.60
9762;DHT22;4920;49.594;11.022;2023-03-03T13:22:18;11.70;86.60
9762;DHT22;4920;49.594;11.022;2023-03-03T13:24:57;11.70;85.50
9762;DHT22;4920;49.594;11.022;2023-03-03T13:27:33;11.70;85.40
9762;DHT22;4920;49.594;11.022;2023-03-03T13:30:14;11.60;85.80
9762;DHT22;4920;49.594;11.022;2023-03-03T13:32:48;11.60;85.60
9762;DHT22;4920;49.594;11.022;2023-03-03T13:35:31;11.70;86.90
9762;DHT22;4920;49.594;11.022;2023-03-03T13:38:01;11.80;88.10
9762;DHT22;4920;49.594;11.022;2023-03-03T13:40:39;11.90;88.80
9762;DHT22;4920;49.594;11.022;2023-03-03T13:43:14;12.00;87.00
9762;DHT22;4920;49.594;11.022;2023-03-03T13:45:56;12.00;85.80
9762;DHT22;4920;49.594;11.022;2023-03-03T13:48:36;12.10;85.80
9762;DHT22;4920;49.594;11.022;2023-03-03T13:51:18;12.10;86.60
9762;DHT22;4920;49.594;11.022;2023-03-03T13:53:55;11.90;86.00
9762;DHT22;4920;49.594;11.022;2023-03-03T13:56:42;12.00;86.30
9762;DHT22;4920;49.594;11.022;2023-03-03T13:59:22;11.90;86.20
9762;DHT22;4920;49.594;11.022;2023-03-03T14:02:02;11.80;88.00
9762;DHT22;4920;49.594;11.022;2023-03-03T14:04:45;11.90;86.90
9762;DHT22;4920;49.594;11.022;2023-03-03T14:07:22;11.90;87.50
9762;DHT22;4920;49.594;11.022;2023-03-03T14:10:02;12.00;87.20
9762;DHT22;4920;49.594;11.022;2023-03-03T14:12:41;12.00;86.10
9762;DHT22;4920;49.594;11.022;2023-03-03T14:15:19;11.90;87.40
9762;DHT22;4920;49.594;11.022;2023-03-03T14:18:02;12.00;87.60
9762;DHT22;4920;49.594;11.022;2023-03-03T14:20:36;12.00;86.90
9762;DHT22;4920;49.594;11.022;2023-03-03T14:23:12;12.10;87.20
9762;DHT22;4920;49.594;11.022;2023-03-03T14:25:58;12.00;85.10
9762;DHT22;4920;49.594;11.022;2023-03-03T14:28:28;11.80;86.30
9762;DHT22;4920;49.594;11.022;2023-03-03T14:30:57;11.70;87.00
9762;DHT22;4920;49.594;11.022;2023-03-03T14:33:38;11.80;88.60
9762;DHT22;4920;49.594;11.022;2023-03-03T14:36:12;11.80;87.40
9762;DHT22;4920;49.594;11.022;2023-03-03T14:38:47;11.80;87.40
9762;DHT22;4920;49.594;11.022;2023-03-03T14:41:20;11.70;88.40
9762;DHT22;4920;49.594;11.022;2023-03-03T14:43:57;11.70;88.40
9762;DHT22;4920;49.594;11.022;2023-03-03T14:46:32;11.70;89.20
9762;DHT22;4920;49.594;11.022;2023-03-03T14:49:05;11.70;89.40
9762;DHT22;4920;49.594;11.022;2023-03-03T14:51:43;11.80;89.10
9762;DHT22;4920;49.594;11.022;2023-03-03T14:54:21;11.70;89.80
9762;DHT22;4920;49.594;11.022;2023-03-03T14:57:01;11.60;89.90
9762;DHT22;4920;49.594;11.022;2023-03-03T14:59:30;11.60;89.50
9762;DHT22;4920;49.594;11.022;2023-03-03T15:02:19;11.60;90.00
9762;DHT22;4920;49.594;11.022;2023-03-03T15:05:14;11.50;90.20
9762;DHT22;4920;49.594;11.022;2023-03-03T15:07:45;11.50;90.00
9762;DHT22;4920;49.594;11.022;2023-03-03T15:10:27;11.40;90.10
9762;DHT22;4920;49.594;11.022;2023-03-03T15:12:55;11.40;91.30
9762;DHT22;4920;49.594;11.022;2023-03-03T15:15:25;11.30;90.10
9762;DHT22;4920;49.594;11.022;2023-03-03T15:17:57;11.30;90.30
9762;DHT22;4920;49.594;11.022;2023-03-03T15:20:40;11.20;90.40
9762;DHT22;4920;49.594;11.022;2023-03-03T15:26:16;11.20;90.80
9762;DHT22;4920;49.594;11.022;2023-03-03T15:28:56;11.20;90.80
9762;DHT22;4920;49.594;11.022;2023-03-03T15:31:34;11.10;90.80
9762;DHT22;4920;49.594;11.022;2023-03-03T15:34:20;11.00;90.70
9762;DHT22;4920;49.594;11.022;2023-03-03T15:36:58;11.00;91.00
9762;DHT22;4920;49.594;11.022;2023-03-03T15:39:34;10.90;91.00
9762;DHT22;4920;49.594;11.022;2023-03-03T15:42:06;10.80;91.00
9762;DHT22;4920;49.594;11.022;2023-03-03T15:44:50;10.80;91.10
9762;DHT22;4920;49.594;11.022;2023-03-03T15:47:33;10.80;91.60
9762;DHT22;4920;49.594;11.022;2023-03-03T15:50:18;10.80;91.10
9762;DHT22;4920;49.594;11.022;2023-03-03T15:52:57;10.70;91.30
9762;DHT22;4920;49.594;11.022;2023-03-03T15:55:48;10.60;91.30
9762;DHT22;4920;49.594;11.022;2023-03-03T15:58:35;10.60;91.60
9762;DHT22;4920;49.594;11.022;2023-03-03T16:01:16;10.50;91.40
9762;DHT22;4920;49.594;11.022;2023-03-03T16:03:52;10.40;91.60
9762;DHT22;4920;49.594;11.022;2023-03-03T16:06:29;10.30;91.20
9762;DHT22;4920;49.594;11.022;2023-03-03T16:09:06;10.10;91.40
9762;DHT22;4920;49.594;11.022;2023-03-03T16:11:43;10.00;91.20
9762;DHT22;4920;49.594;11.022;2023-03-03T16:14:46;10.00;91.20
9762;DHT22;4920;49.594;11.022;2023-03-03T16:17:25;9.80;91.60
9762;DHT22;4920;49.594;11.022;2023-03-03T16:20:01;9.70;91.30
9762;DHT22;4920;49.594;11.022;2023-03-03T16:22:46;9.50;91.10
9762;DHT22;4920;49.594;11.022;2023-03-03T16:25:30;9.40;90.90
9762;DHT22;4920;49.594;11.022;2023-03-03T16:28:05;9.30;91.10
9762;DHT22;4920;49.594;11.022;2023-03-03T16:30:43;9.20;91.30
9762;DHT22;4920;49.594;11.022;2023-03-03T16:33:20;9.00;91.20
9762;DHT22;4920;49.594;11.022;2023-03-03T16:35:58;8.90;91.30
9762;DHT22;4920;49.594;11.022;2023-03-03T16:38:31;8.90;91.30
9762;DHT22;4920;49.594;11.022;2023-03-03T16:41:09;8.80;91.50
9762;DHT22;4920;49.594;11.022;2023-03-03T16:43:57;8.60;91.30
9762;DHT22;4920;49.594;11.022;2023-03-03T16:46:32;8.60;91.50
9762;DHT22;4920;49.594;11.022;2023-03-03T16:49:07;8.40;91.50
9762;DHT22;4920;49.594;11.022;2023-03-03T16:51:43;8.30;91.30
9762;DHT22;4920;49.594;11.022;2023-03-03T16:54:17;8.20;91.10
9762;DHT22;4920;49.594;11.022;2023-03-03T16:56:59;8.10;91.10
9762;DHT22;4920;49.594;11.022;2023-03-03T16:59:41;7.90;91.10
9762;DHT22;4920;49.594;11.022;2023-03-03T17:02:44;7.80;91.10